TimeEST,TemperatureF,Dew PointF,Humidity,Sea Level PressureIn,VisibilityMPH,Wind Direction,Wind SpeedMPH,Gust SpeedMPH,PrecipitationIn,Events,Conditions,WindDirDegrees,DateUTC
12:54 AM,37.0,23.0,57,30.08,10.0,WNW,6.9,-,N/A,,Overcast,300,2014-02-10 05:54:00
1:54 AM,37.0,23.0,57,30.09,10.0,NW,13.8,-,N/A,,Overcast,310,2014-02-10 06:54:00
2:54 AM,36.0,21.9,57,30.10,10.0,NW,12.7,-,N/A,,Overcast,320,2014-02-10 07:54:00
3:54 AM,33.1,21.0,61,30.10,10.0,NW,12.7,-,N/A,,Partly Cloudy,320,2014-02-10 08:54:00
4:54 AM,32.0,19.9,61,30.10,10.0,NW,17.3,-,N/A,,Partly Cloudy,320,2014-02-10 09:54:00
5:54 AM,32.0,19.9,61,30.12,10.0,NW,8.1,-,N/A,,Partly Cloudy,310,2014-02-10 10:54:00
6:54 AM,30.0,19.0,64,30.14,10.0,WNW,4.6,-,N/A,,Scattered Clouds,300,2014-02-10 11:54:00
7:54 AM,30.9,19.0,61,30.17,10.0,Calm,Calm,-,N/A,,Mostly Cloudy,0,2014-02-10 12:54:00
8:54 AM,32.0,19.0,59,30.20,10.0,NNE,5.8,-,N/A,,Overcast,20,2014-02-10 13:54:00
9:54 AM,33.1,19.0,56,30.23,10.0,NNW,6.9,-,N/A,,Overcast,330,2014-02-10 14:54:00
10:54 AM,34.0,19.0,54,30.23,10.0,Variable,6.9,-,N/A,,Overcast,0,2014-02-10 15:54:00
11:54 AM,34.0,18.0,52,30.22,10.0,WNW,5.8,-,N/A,,Overcast,300,2014-02-10 16:54:00
12:54 PM,35.1,18.0,50,30.19,10.0,WNW,6.9,-,N/A,,Overcast,290,2014-02-10 17:54:00
1:54 PM,36.0,16.0,44,30.17,10.0,NW,8.1,-,N/A,,Overcast,310,2014-02-10 18:54:00
2:54 PM,37.0,10.9,34,30.16,10.0,NW,9.2,-,N/A,,Overcast,320,2014-02-10 19:54:00
3:54 PM,36.0,10.0,34,30.18,10.0,WNW,11.5,-,N/A,,Mostly Cloudy,300,2014-02-10 20:54:00
4:54 PM,35.1,12.0,39,30.19,10.0,NW,9.2,-,N/A,,Mostly Cloudy,310,2014-02-10 21:54:00
5:54 PM,34.0,12.0,40,30.22,10.0,NW,10.4,-,N/A,,Mostly Cloudy,310,2014-02-10 22:54:00
6:54 PM,30.9,12.0,46,30.23,10.0,NW,8.1,-,N/A,,Scattered Clouds,320,2014-02-10 23:54:00
7:54 PM,30.9,10.0,42,30.25,10.0,NNW,9.2,-,N/A,,Scattered Clouds,330,2014-02-11 00:54:00
8:54 PM,28.0,10.9,49,30.26,10.0,NNW,8.1,-,N/A,,Partly Cloudy,340,2014-02-11 01:54:00
9:54 PM,28.9,10.0,45,30.29,10.0,NNW,4.6,-,N/A,,Clear,340,2014-02-11 02:54:00
10:54 PM,27.0,10.9,51,30.30,10.0,North,8.1,-,N/A,,Clear,10,2014-02-11 03:54:00
11:54 PM,26.1,10.9,53,30.30,10.0,Calm,Calm,-,N/A,,Clear,0,2014-02-11 04:54:00